Weather History for KCAD - July, 2014

Change the Weather History Date:

Sunday, July 13, 2014

  Actual Average (KTVC) Record (KTVC)
Temperature  
Mean Temperature 64 °F 69 °F  
Max Temperature 74 °F 81 °F 100 °F (1936)
Min Temperature 52 °F 58 °F 44 °F (1976)
Degree Days  
Heating Degree Days 2 1  
Month to date heating degree days 14  
Since 1 June heating degree days 126  
Since 1 July heating degree days 14  
Cooling Degree Days 0 5  
Month to date cooling degree days 65  
Year to date cooling degree days 166  
Since 1 June cooling degree days 146  
Growing Degree Days 14 (Base 50)    
Moisture  
Dew Point 61 °F    
Average Humidity 83    
Maximum Humidity 100    
Minimum Humidity 46    
Precipitation  
Precipitation 0.00 in 0.10 in 1.46 in (1964)
Month to date precipitation 1.23  
Year to date precipitation 15.94  
Sea Level Pressure  
Sea Level Pressure 29.85 in    
Wind  
Wind Speed 7 mph (West)    
Max Wind Speed 17 mph    
Max Gust Speed 24 mph    
Visibility 9 miles    
Events Rain    
T = Trace of Precipitation, MM = Missing Value Source: NWS Daily Summary

Daily Weather History Graph

Daily Weather History Graph

Search for Another Location

Airport or City:

Trip Planner

Search our weather history database for the weather conditions in past years. The results will help you decide how hot, cold, wet, or windy it might be!

Date:

Astronomy

Jul. 13, 2014 Rise Set
Actual Time 6:10 AM EDT 9:24 PM EDT
Civil Twilight 5:34 AM EDT 9:59 PM EDT
Nautical Twilight 4:48 AM EDT 10:45 PM EDT
Astronomical Twilight 3:52 AM EDT 11:41 PM EDT
Moon 10:05 PM EDT (7/13) 7:44 AM EDT (7/13)
Length of Visible Light 16h 24m
Length of Day
15h 14m
Full, 98% of the Moon is Illuminated
Jul 13
Full
Jul 18
Last Quarter
Jul 26
New
Aug 3
First Quarter
Aug 10
Full

Hourly Weather History & Observations

Time (EDT) Temp. Dew Point Humidity Pressure Visibility Wind Dir Wind Speed Gust Speed Precip Events Conditions
12:14 AM 68.0 °F 68.0 °F 100% 29.84 in 2.5 mi WSW 4.6 mph - N/A Rain Rain
12:34 AM 68.0 °F 68.0 °F 100% 29.84 in 2.5 mi SW 8.1 mph - N/A Rain Rain
12:55 AM 68.0 °F 68.0 °F 100% 29.83 in 3.0 mi WSW 6.9 mph - N/A Rain Rain
1:14 AM 67.5 °F 67.5 °F 100% 29.84 in 3.0 mi SW 4.6 mph - N/A Rain Heavy Rain
1:34 AM 67.5 °F 67.5 °F 100% 29.82 in 3.0 mi Calm Calm - N/A Rain Rain
1:55 AM 67.1 °F 67.1 °F 100% 29.81 in 7.0 mi SSE 3.5 mph - N/A Rain Rain
2:14 AM 67.1 °F 67.1 °F 100% 29.80 in 7.0 mi South 3.5 mph - N/A Rain Light Rain
2:34 AM 67.1 °F 67.1 °F 100% 29.79 in 7.0 mi Calm Calm - N/A   Overcast
2:55 AM 66.6 °F 66.6 °F 100% 29.79 in 7.0 mi Calm Calm - N/A   Overcast
3:14 AM 67.1 °F 67.1 °F 100% 29.79 in 7.0 mi West 4.6 mph - N/A   Overcast
3:34 AM 67.1 °F 67.1 °F 100% 29.79 in 10.0 mi West 3.5 mph - N/A   Overcast
3:55 AM 66.4 °F 66.4 °F 100% 29.79 in 10.0 mi WNW 9.2 mph - N/A   Mostly Cloudy
4:14 AM 65.3 °F 64.9 °F 99% 29.80 in 10.0 mi WNW 9.2 mph 16.1 mph N/A   Mostly Cloudy
4:34 AM 64.2 °F 63.9 °F 99% 29.80 in 10.0 mi West 4.6 mph - N/A   Scattered Clouds
4:55 AM 63.5 °F 63.5 °F 100% 29.81 in 10.0 mi West 5.8 mph - N/A   Clear
5:14 AM 62.6 °F 62.6 °F 100% 29.81 in 10.0 mi West 8.1 mph - N/A   Clear
5:34 AM 62.1 °F 62.1 °F 100% 29.81 in 10.0 mi West 5.8 mph - N/A   Clear
5:55 AM 61.2 °F 61.2 °F 100% 29.81 in 10.0 mi WSW 5.8 mph - N/A   Clear
6:14 AM 60.8 °F 60.8 °F 100% 29.81 in 7.0 mi West 6.9 mph - N/A   Clear
6:34 AM 60.4 °F 60.4 °F 100% 29.82 in 7.0 mi WSW 6.9 mph - N/A   Clear
6:55 AM 60.4 °F 60.4 °F 100% 29.82 in 10.0 mi WSW 5.8 mph - N/A   Clear
7:14 AM 61.2 °F 60.8 °F 99% 29.83 in 10.0 mi West 8.1 mph - N/A   Clear
7:34 AM 61.9 °F 61.2 °F 97% 29.82 in 10.0 mi West 8.1 mph - N/A   Clear
7:55 AM 62.6 °F 61.7 °F 97% 29.83 in 10.0 mi WSW 6.9 mph - N/A   Scattered Clouds
8:14 AM 63.5 °F 62.1 °F 95% 29.83 in 10.0 mi West 9.2 mph - N/A   Scattered Clouds
8:35 AM 64.2 °F 62.2 °F 93% 29.84 in 10.0 mi West 8.1 mph - N/A   Mostly Cloudy
8:54 AM 63.0 °F 61.5 °F 95% 29.85 in 10.0 mi West 13.8 mph - N/A   Overcast
9:14 AM 63.0 °F 61.9 °F 96% 29.86 in 7.0 mi West 9.2 mph - N/A   Overcast
9:35 AM 64.4 °F 62.2 °F 93% 29.86 in 10.0 mi West 9.2 mph - N/A   Overcast
9:54 AM 63.3 °F 61.7 °F 94% 29.87 in 10.0 mi West 8.1 mph - N/A   Overcast
10:14 AM 64.0 °F 62.4 °F 94% 29.86 in 10.0 mi West 8.1 mph - N/A   Overcast
10:35 AM 64.4 °F 62.2 °F 93% 29.86 in 10.0 mi West 11.5 mph - N/A   Overcast
10:54 AM 66.0 °F 62.8 °F 89% 29.86 in 10.0 mi West 8.1 mph - N/A   Overcast
11:14 AM 68.2 °F 63.3 °F 84% 29.86 in 10.0 mi West 10.4 mph - N/A   Overcast
11:35 AM 70.5 °F 64.0 °F 80% 29.86 in 10.0 mi West 11.5 mph 16.1 mph N/A   Scattered Clouds
11:54 AM 70.9 °F 63.3 °F 77% 29.86 in 10.0 mi WSW 10.4 mph - N/A   Mostly Cloudy
12:14 PM 71.1 °F 63.0 °F 75% 29.86 in 10.0 mi West 11.5 mph 19.6 mph N/A   Scattered Clouds
12:35 PM 71.6 °F 63.3 °F 75% 29.86 in 10.0 mi West 10.4 mph 20.7 mph N/A   Mostly Cloudy
12:54 PM 71.8 °F 63.1 °F 74% 29.86 in 10.0 mi West 8.1 mph 18.4 mph N/A   Mostly Cloudy
1:14 PM 72.5 °F 62.8 °F 71% 29.86 in 10.0 mi West 12.7 mph 19.6 mph N/A   Overcast
1:35 PM 73.2 °F 62.8 °F 70% 29.86 in 10.0 mi West 10.4 mph 18.4 mph N/A   Mostly Cloudy
1:54 PM 73.0 °F 62.6 °F 70% 29.86 in 10.0 mi West 17.3 mph 20.7 mph N/A   Mostly Cloudy
2:14 PM 73.9 °F 62.1 °F 66% 29.86 in 10.0 mi West 13.8 mph 20.7 mph N/A   Mostly Cloudy
2:34 PM 71.8 °F 60.8 °F 68% 29.86 in 10.0 mi West 12.7 mph 18.4 mph N/A   Mostly Cloudy
2:54 PM 70.9 °F 60.6 °F 70% 29.86 in 10.0 mi West 12.7 mph 18.4 mph N/A   Overcast
3:15 PM 73.0 °F 61.9 °F 68% 29.86 in 10.0 mi WNW 13.8 mph 21.9 mph N/A   Mostly Cloudy
3:34 PM 72.9 °F 61.5 °F 67% 29.86 in 10.0 mi West 12.7 mph - N/A   Mostly Cloudy
3:54 PM 72.7 °F 61.3 °F 67% 29.86 in 10.0 mi West 15.0 mph 20.7 mph N/A   Mostly Cloudy
4:15 PM 73.6 °F 60.3 °F 63% 29.86 in 10.0 mi WNW 16.1 mph 24.2 mph N/A   Mostly Cloudy
4:34 PM 74.1 °F 61.0 °F 63% 29.86 in 10.0 mi West 9.2 mph 18.4 mph N/A   Mostly Cloudy
4:54 PM 71.8 °F 58.1 °F 62% 29.86 in 10.0 mi WNW 12.7 mph 20.7 mph N/A   Mostly Cloudy
5:15 PM 73.2 °F 57.6 °F 58% 29.86 in 10.0 mi West 11.5 mph 21.9 mph N/A   Scattered Clouds
5:34 PM 73.6 °F 57.0 °F 56% 29.86 in 10.0 mi West 13.8 mph 20.7 mph N/A   Scattered Clouds
5:55 PM 74.3 °F 56.7 °F 54% 29.86 in 10.0 mi West 11.5 mph - N/A   Clear
6:14 PM 73.6 °F 51.8 °F 46% 29.86 in 10.0 mi West 13.8 mph 20.7 mph N/A   Scattered Clouds
6:34 PM 73.4 °F 51.3 °F 46% 29.86 in 10.0 mi WNW 11.5 mph - N/A   Clear
7:14 PM 72.0 °F 50.7 °F 47% 29.87 in 10.0 mi West 11.5 mph 17.3 mph N/A   Clear
7:34 PM 71.6 °F 52.0 °F 50% 29.87 in 10.0 mi WNW 10.4 mph - N/A   Clear
7:55 PM 70.9 °F 50.7 °F 49% 29.87 in 10.0 mi West 8.1 mph - N/A   Clear
8:14 PM 69.4 °F 52.5 °F 55% 29.88 in 10.0 mi WNW 3.5 mph - N/A   Clear
8:34 PM 68.0 °F 54.5 °F 62% 29.89 in 10.0 mi NW 3.5 mph - N/A   Clear
8:55 PM 66.7 °F 54.0 °F 63% 29.89 in 10.0 mi Calm Calm - N/A   Clear
9:14 PM 65.3 °F 53.8 °F 66% 29.89 in 10.0 mi Calm Calm - N/A   Clear
9:34 PM 63.3 °F 54.5 °F 73% 29.89 in 10.0 mi Calm Calm - N/A   Clear
9:55 PM 59.7 °F 54.7 °F 83% 29.89 in 7.0 mi Calm Calm - N/A   Clear
10:14 PM 57.0 °F 54.5 °F 91% 29.90 in 10.0 mi Calm Calm - N/A   Clear
10:34 PM 55.8 °F 54.5 °F 96% 29.90 in 10.0 mi Calm Calm - N/A   Clear
10:55 PM 54.9 °F 53.2 °F 94% 29.91 in 10.0 mi Calm Calm - N/A   Clear
11:14 PM 54.0 °F 54.0 °F 100% 29.91 in 10.0 mi Calm Calm - N/A   Clear
11:34 PM 53.4 °F 52.9 °F 98% 29.90 in 10.0 mi Calm Calm - N/A   Clear
11:55 PM 52.0 °F 52.0 °F 100% 29.90 in 7.0 mi Calm Calm - N/A   Clear